Aviation Digital Data Service (ADDS)

Output produced by METARs form (1819 UTC 29 January 2015)
found at http://www.aviationweather.gov/adds/metars/
 
KDUJ 291811Z AUTO 17008KT 1 1/2SM -SN BKN026 OVC032 M02/M10 A2987 RMK AO2 SNB02 P0000 T10221100
KDUJ 291803Z AUTO 16007KT 2 1/2SM -SN BKN026 OVC034 M02/M12 A2987 RMK AO2 SNB02 P0000 T10171122
KDUJ 291753Z AUTO 16006KT 10SM BKN032 OVC060 M02/M14 A2988 RMK AO2 SLP146 T10171139 11017 21078 56035
KDUJ 291653Z AUTO 13013G18KT 10SM OVC055 M02/M14 A2990 RMK AO2 SLP151 T10221144
KDUJ 291553Z AUTO 12011G18KT 10SM OVC055 M03/M15 A2995 RMK AO2 SLP168 T10331150
KDUJ 291453Z AUTO 13011KT 10SM SCT055 OVC065 M04/M16 A2999 RMK AO2 SLP184 T10441156 58023
KDUJ 291353Z AUTO 11012KT 10SM OVC065 M06/M16 A3001 RMK AO2 SLP191 T10561156
KDUJ 291253Z AUTO 13009KT 10SM OVC090 M07/M16 A3007 RMK AO2 SLP211 T10671161
KDUJ 291153Z AUTO 13013KT 10SM BKN110 M08/M16 A3006 RMK AO2 SLP209 T10781161 11078 21139 58033
KDUJ 291053Z AUTO 11011KT 10SM OVC100 M09/M15 A3009 RMK AO2 SLP221 T10941150
KDUJ 290953Z AUTO 11008KT 10SM OVC110 M10/M14 A3014 RMK AO2 SLP238 T11001144
KDUJ 290853Z AUTO 11006KT 10SM FEW120 M12/M15 A3017 RMK AO2 SLP246 T11171150 56010
KDUJ 290753Z AUTO 00000KT 10SM CLR M12/M16 A3018 RMK AO2 SLP253 T11221156
KDUJ 290653Z AUTO 11004KT 10SM CLR M12/M15 A3017 RMK AO2 SLP250 T11221150
KDUJ 290553Z AUTO 13003KT 10SM CLR M13/M16 A3020 RMK AO2 SLP260 T11281161 11078 21133 58011
KDUJ 290453Z AUTO 00000KT 10SM CLR M12/M16 A3020 RMK AO2 SLP263 T11171161 410501156
KDUJ 290353Z AUTO 00000KT 10SM CLR M10/M16 A3022 RMK AO2 SLP269 T11001161
KDUJ 290253Z AUTO 00000KT 10SM CLR M10/M16 A3023 RMK AO2 SLP272 T11001161 58002
KDUJ 290153Z AUTO 24005KT 10SM CLR M09/M16 A3025 RMK AO2 SLP279 T10941156
KDUJ 290053Z AUTO 24007KT 10SM CLR M09/M16 A3024 RMK AO2 SLP277 T10891156
KDUJ 282353Z AUTO 24005KT 10SM CLR M08/M16 A3024 RMK AO2 SLP274 T10831161 11050 21094 51012
KDUJ 282253Z AUTO 24005KT 10SM CLR M07/M16 A3023 RMK AO2 SLP271 T10721156
KDUJ 282153Z AUTO 25008KT 10SM CLR M07/M14 A3021 RMK AO2 SLP266 T10671144
KDUJ 282053Z AUTO 24007KT 10SM CLR M06/M14 A3020 RMK AO2 SLP261 T10561139 55003
KDUJ 281953Z AUTO 25009KT 10SM CLR M06/M14 A3019 RMK AO2 SLP258 T10561139
KDUJ 281853Z AUTO 28006KT 10SM CLR M06/M15 A3019 RMK AO2 SLP258 T10611150
KDUJ 281753Z AUTO 27009KT 10SM CLR M08/M14 A3021 RMK AO2 SLP265 I6000 T10781139 11072 21133 58000
KDUJ 281653Z AUTO 24009KT 10SM CLR M09/M14 A3022 RMK AO2 SLP271 T10941139
KDUJ 281553Z AUTO 25009KT 7SM CLR M11/M13 A3023 RMK AO2 SLP272 T11061128
KDUJ 281531Z AUTO 26008KT 5SM BR FEW007 M11/M13 A3023 RMK AO2 T11111133
KDUJ 281453Z AUTO 25010KT 4SM BR OVC006 M12/M14 A3021 RMK AO2 SLP267 I1000 I3000 T11171139 51021
KDUJ 281441Z AUTO 26008KT 3SM BR OVC006 M12/M14 A3021 RMK AO2 I1000 T11221139
KDUJ 281433Z AUTO 26009KT 2 1/2SM BR OVC006 M12/M14 A3021 RMK AO2 I1000 T11221139
KDUJ 281418Z AUTO 27009KT 1 3/4SM BR OVC005 M12/M14 A3020 RMK AO2 I1000 T11221144
KDUJ 281353Z AUTO 26010KT 2 1/2SM BR OVC005 M13/M14 A3019 RMK AO2 SLP260 T11281144
KDUJ 281338Z AUTO 26009KT 3SM BR OVC006 M13/M15 A3018 RMK AO2 T11331150
KDUJ 281308Z AUTO 27009KT 2 1/2SM BR OVC006 M13/M15 A3018 RMK AO2 T11281150
KDUJ 281253Z AUTO 27009KT 3SM BR OVC006 M13/M15 A3017 RMK AO2 SLP253 T11281150
KDUJ 281153Z AUTO 27007KT 9SM OVC008 M13/M16 A3015 RMK AO2 SLP243 70001 I1000 I6000 T11331156 11133 21156 53028
KDUJ 281053Z AUTO 28006KT 10SM OVC009 M14/M16 A3011 RMK AO2 SLP232 T11441161
KDUJ 281006Z AUTO 27009KT 10SM BKN007 M15/M16 A3009 RMK AO2 T11501161
KDUJ 280953Z AUTO 27007KT 10SM SCT007 M15/M16 A3008 RMK AO2 SLP221 T11501161
KDUJ 280940Z AUTO 27008KT 10SM SCT005 M15/M17 A3008 RMK AO2 T11501167
KDUJ 280924Z AUTO 27007KT 8SM BKN005 M15/M17 A3007 RMK AO2 T11501167
KDUJ 280914Z AUTO 27007KT 9SM BKN004 M14/M16 A3007 RMK AO2 T11441161
KDUJ 280853Z AUTO 26009KT 9SM SCT005 M14/M16 A3006 RMK AO2 SLP213 I3000 T11441161 53011
KDUJ 280819Z AUTO 26008KT 9SM SCT004 M14/M16 A3005 RMK AO2 T11441161
KDUJ 280753Z AUTO 27009KT 8SM BKN004 M14/M16 A3004 RMK AO2 SLP207 I1000 T11391156
KDUJ 280746Z AUTO 26008KT 8SM BKN005 M14/M16 A3004 RMK AO2 I1000 T11441156
KDUJ 280712Z AUTO 26008KT 10SM FEW005 M14/M16 A3004 RMK AO2 T11441161
KDUJ 280653Z AUTO 27007KT 10SM CLR M14/M16 A3003 RMK AO2 SLP203 I1000 T11441161